sensor_id;sensor_type;location;lat;lon;timestamp;pressure;altitude;pressure_sealevel;temperature
60966;BMP180;46834;51.100;6.886;2022-09-09T00:02:04;100459.00;;;23.40
60966;BMP180;46834;51.100;6.886;2022-09-09T00:04:37;100458.00;;;23.40
60966;BMP180;46834;51.100;6.886;2022-09-09T00:07:16;100446.00;;;23.40
60966;BMP180;46834;51.100;6.886;2022-09-09T00:12:38;100449.00;;;23.30
60966;BMP180;46834;51.100;6.886;2022-09-09T00:15:20;100444.00;;;23.30
60966;BMP180;46834;51.100;6.886;2022-09-09T00:20:45;100425.00;;;23.20
60966;BMP180;46834;51.100;6.886;2022-09-09T00:23:34;100427.00;;;23.10
60966;BMP180;46834;51.100;6.886;2022-09-09T00:32:00;100434.00;;;23.10
60966;BMP180;46834;51.100;6.886;2022-09-09T00:34:29;100433.00;;;23.10
60966;BMP180;46834;51.100;6.886;2022-09-09T00:36:56;100433.00;;;23.10
60966;BMP180;46834;51.100;6.886;2022-09-09T00:39:38;100428.00;;;23.10
60966;BMP180;46834;51.100;6.886;2022-09-09T00:42:25;100431.00;;;23.10
60966;BMP180;46834;51.100;6.886;2022-09-09T00:44:59;100425.00;;;23.10
60966;BMP180;46834;51.100;6.886;2022-09-09T00:47:44;100434.00;;;23.10
60966;BMP180;46834;51.100;6.886;2022-09-09T00:50:51;100438.00;;;23.00
60966;BMP180;46834;51.100;6.886;2022-09-09T00:56:32;100439.00;;;23.00
60966;BMP180;46834;51.100;6.886;2022-09-09T00:59:34;100440.00;;;23.00
60966;BMP180;46834;51.100;6.886;2022-09-09T01:02:21;100441.00;;;23.00
60966;BMP180;46834;51.100;6.886;2022-09-09T01:04:51;100434.00;;;23.10
60966;BMP180;46834;51.100;6.886;2022-09-09T01:07:18;100435.00;;;23.10
60966;BMP180;46834;51.100;6.886;2022-09-09T01:09:59;100434.00;;;23.00
60966;BMP180;46834;51.100;6.886;2022-09-09T01:12:41;100437.00;;;23.00
60966;BMP180;46834;51.100;6.886;2022-09-09T01:15:29;100433.00;;;23.00
60966;BMP180;46834;51.100;6.886;2022-09-09T01:18:15;100426.00;;;23.00
60966;BMP180;46834;51.100;6.886;2022-09-09T01:26:35;100434.00;;;22.90
60966;BMP180;46834;51.100;6.886;2022-09-09T01:29:07;100432.00;;;22.90
60966;BMP180;46834;51.100;6.886;2022-09-09T01:31:40;100437.00;;;22.90
60966;BMP180;46834;51.100;6.886;2022-09-09T01:34:14;100432.00;;;22.90
60966;BMP180;46834;51.100;6.886;2022-09-09T01:36:56;100425.00;;;22.80
60966;BMP180;46834;51.100;6.886;2022-09-09T01:39:23;100430.00;;;22.90
60966;BMP180;46834;51.100;6.886;2022-09-09T01:41:49;100429.00;;;22.80
60966;BMP180;46834;51.100;6.886;2022-09-09T01:44:15;100417.00;;;22.80
60966;BMP180;46834;51.100;6.886;2022-09-09T01:46:41;100424.00;;;22.80
60966;BMP180;46834;51.100;6.886;2022-09-09T01:49:08;100428.00;;;22.80
60966;BMP180;46834;51.100;6.886;2022-09-09T01:51:37;100425.00;;;22.70
60966;BMP180;46834;51.100;6.886;2022-09-09T01:54:04;100426.00;;;22.80
60966;BMP180;46834;51.100;6.886;2022-09-09T01:57:08;100426.00;;;22.70
60966;BMP180;46834;51.100;6.886;2022-09-09T02:00:07;100434.00;;;22.60
60966;BMP180;46834;51.100;6.886;2022-09-09T02:05:41;100435.00;;;22.60
60966;BMP180;46834;51.100;6.886;2022-09-09T02:08:18;100433.00;;;22.60
60966;BMP180;46834;51.100;6.886;2022-09-09T02:11:06;100436.00;;;22.60
60966;BMP180;46834;51.100;6.886;2022-09-09T02:13:38;100433.00;;;22.60
60966;BMP180;46834;51.100;6.886;2022-09-09T02:16:21;100424.00;;;22.50
60966;BMP180;46834;51.100;6.886;2022-09-09T02:19:06;100425.00;;;22.50
60966;BMP180;46834;51.100;6.886;2022-09-09T02:21:33;100431.00;;;22.50
60966;BMP180;46834;51.100;6.886;2022-09-09T02:24:06;100428.00;;;22.50
60966;BMP180;46834;51.100;6.886;2022-09-09T02:26:41;100431.00;;;22.50
60966;BMP180;46834;51.100;6.886;2022-09-09T02:29:23;100429.00;;;22.50
60966;BMP180;46834;51.100;6.886;2022-09-09T02:31:52;100424.00;;;22.50
60966;BMP180;46834;51.100;6.886;2022-09-09T02:34:22;100419.00;;;22.50
60966;BMP180;46834;51.100;6.886;2022-09-09T02:36:53;100424.00;;;22.50
60966;BMP180;46834;51.100;6.886;2022-09-09T02:39:19;100416.00;;;22.50
60966;BMP180;46834;51.100;6.886;2022-09-09T02:41:45;100422.00;;;22.50
60966;BMP180;46834;51.100;6.886;2022-09-09T02:44:13;100424.00;;;22.40
60966;BMP180;46834;51.100;6.886;2022-09-09T02:47:16;100420.00;;;22.40
60966;BMP180;46834;51.100;6.886;2022-09-09T02:50:11;100405.00;;;22.30
60966;BMP180;46834;51.100;6.886;2022-09-09T02:53:01;100417.00;;;22.30
60966;BMP180;46834;51.100;6.886;2022-09-09T02:56:06;100426.00;;;22.30
60966;BMP180;46834;51.100;6.886;2022-09-09T02:58:36;100423.00;;;22.40
60966;BMP180;46834;51.100;6.886;2022-09-09T03:01:02;100423.00;;;22.30
60966;BMP180;46834;51.100;6.886;2022-09-09T03:03:28;100411.00;;;22.30
60966;BMP180;46834;51.100;6.886;2022-09-09T03:05:54;100425.00;;;22.30
60966;BMP180;46834;51.100;6.886;2022-09-09T03:08:20;100417.00;;;22.30
60966;BMP180;46834;51.100;6.886;2022-09-09T03:10:46;100405.00;;;22.30
60966;BMP180;46834;51.100;6.886;2022-09-09T03:13:11;100401.00;;;22.30
60966;BMP180;46834;51.100;6.886;2022-09-09T03:15:40;100406.00;;;22.30
60966;BMP180;46834;51.100;6.886;2022-09-09T03:18:06;100401.00;;;22.30
60966;BMP180;46834;51.100;6.886;2022-09-09T03:20:32;100405.00;;;22.30
60966;BMP180;46834;51.100;6.886;2022-09-09T03:23:00;100397.00;;;22.30
60966;BMP180;46834;51.100;6.886;2022-09-09T03:25:26;100405.00;;;22.30
60966;BMP180;46834;51.100;6.886;2022-09-09T03:27:53;100401.00;;;22.30
60966;BMP180;46834;51.100;6.886;2022-09-09T03:30:26;100386.00;;;22.30
60966;BMP180;46834;51.100;6.886;2022-09-09T03:32:53;100394.00;;;22.30
60966;BMP180;46834;51.100;6.886;2022-09-09T03:35:19;100397.00;;;22.30
60966;BMP180;46834;51.100;6.886;2022-09-09T03:37:45;100405.00;;;22.30
60966;BMP180;46834;51.100;6.886;2022-09-09T03:40:11;100398.00;;;22.30
60966;BMP180;46834;51.100;6.886;2022-09-09T03:42:38;100400.00;;;22.30
60966;BMP180;46834;51.100;6.886;2022-09-09T03:45:07;100401.00;;;22.30
60966;BMP180;46834;51.100;6.886;2022-09-09T03:47:34;100398.00;;;22.30
60966;BMP180;46834;51.100;6.886;2022-09-09T03:50:00;100394.00;;;22.30
60966;BMP180;46834;51.100;6.886;2022-09-09T03:52:26;100399.00;;;22.30
60966;BMP180;46834;51.100;6.886;2022-09-09T03:54:53;100400.00;;;22.20
60966;BMP180;46834;51.100;6.886;2022-09-09T03:57:20;100413.00;;;22.20
60966;BMP180;46834;51.100;6.886;2022-09-09T03:59:45;100392.00;;;22.20
60966;BMP180;46834;51.100;6.886;2022-09-09T04:02:11;100398.00;;;22.20
60966;BMP180;46834;51.100;6.886;2022-09-09T04:04:37;100404.00;;;22.20
60966;BMP180;46834;51.100;6.886;2022-09-09T04:07:03;100400.00;;;22.20
60966;BMP180;46834;51.100;6.886;2022-09-09T04:09:31;100416.00;;;22.20
60966;BMP180;46834;51.100;6.886;2022-09-09T04:11:57;100411.00;;;22.20
60966;BMP180;46834;51.100;6.886;2022-09-09T04:14:23;100407.00;;;22.20
60966;BMP180;46834;51.100;6.886;2022-09-09T04:16:48;100400.00;;;22.20
60966;BMP180;46834;51.100;6.886;2022-09-09T04:19:14;100409.00;;;22.20
60966;BMP180;46834;51.100;6.886;2022-09-09T04:21:41;100409.00;;;22.20
60966;BMP180;46834;51.100;6.886;2022-09-09T04:24:08;100420.00;;;22.20
60966;BMP180;46834;51.100;6.886;2022-09-09T04:26:35;100405.00;;;22.20
60966;BMP180;46834;51.100;6.886;2022-09-09T04:29:05;100401.00;;;22.20
60966;BMP180;46834;51.100;6.886;2022-09-09T04:31:33;100402.00;;;22.20
60966;BMP180;46834;51.100;6.886;2022-09-09T04:33:59;100400.00;;;22.20
60966;BMP180;46834;51.100;6.886;2022-09-09T04:36:31;100404.00;;;22.20
60966;BMP180;46834;51.100;6.886;2022-09-09T04:38:57;100394.00;;;22.20
60966;BMP180;46834;51.100;6.886;2022-09-09T04:41:23;100403.00;;;22.20
60966;BMP180;46834;51.100;6.886;2022-09-09T04:43:49;100406.00;;;22.20
60966;BMP180;46834;51.100;6.886;2022-09-09T04:46:15;100413.00;;;22.20
60966;BMP180;46834;51.100;6.886;2022-09-09T04:48:44;100411.00;;;22.20
60966;BMP180;46834;51.100;6.886;2022-09-09T04:51:13;100415.00;;;22.20
60966;BMP180;46834;51.100;6.886;2022-09-09T04:53:39;100416.00;;;22.20
60966;BMP180;46834;51.100;6.886;2022-09-09T04:56:14;100411.00;;;22.20
60966;BMP180;46834;51.100;6.886;2022-09-09T04:58:41;100411.00;;;22.20
60966;BMP180;46834;51.100;6.886;2022-09-09T05:01:17;100413.00;;;22.20
60966;BMP180;46834;51.100;6.886;2022-09-09T05:03:44;100407.00;;;22.20
60966;BMP180;46834;51.100;6.886;2022-09-09T05:06:17;100409.00;;;22.20
60966;BMP180;46834;51.100;6.886;2022-09-09T05:08:44;100406.00;;;22.20
60966;BMP180;46834;51.100;6.886;2022-09-09T05:11:26;100404.00;;;22.10
60966;BMP180;46834;51.100;6.886;2022-09-09T05:13:53;100404.00;;;22.20
60966;BMP180;46834;51.100;6.886;2022-09-09T05:16:20;100412.00;;;22.20
60966;BMP180;46834;51.100;6.886;2022-09-09T05:18:47;100406.00;;;22.20
60966;BMP180;46834;51.100;6.886;2022-09-09T05:21:15;100411.00;;;22.20
60966;BMP180;46834;51.100;6.886;2022-09-09T05:23:41;100409.00;;;22.20
60966;BMP180;46834;51.100;6.886;2022-09-09T05:26:13;100407.00;;;22.10
60966;BMP180;46834;51.100;6.886;2022-09-09T05:28:39;100400.00;;;22.20
60966;BMP180;46834;51.100;6.886;2022-09-09T05:31:10;100398.00;;;22.10
60966;BMP180;46834;51.100;6.886;2022-09-09T05:33:43;100406.00;;;22.10
60966;BMP180;46834;51.100;6.886;2022-09-09T05:36:19;100390.00;;;22.10
60966;BMP180;46834;51.100;6.886;2022-09-09T05:38:46;100401.00;;;22.20
60966;BMP180;46834;51.100;6.886;2022-09-09T05:41:13;100392.00;;;22.20
60966;BMP180;46834;51.100;6.886;2022-09-09T05:43:41;100399.00;;;22.20
60966;BMP180;46834;51.100;6.886;2022-09-09T05:46:20;100401.00;;;22.10
60966;BMP180;46834;51.100;6.886;2022-09-09T05:48:47;100414.00;;;22.20
60966;BMP180;46834;51.100;6.886;2022-09-09T05:51:23;100414.00;;;22.20
60966;BMP180;46834;51.100;6.886;2022-09-09T05:53:50;100418.00;;;22.20
60966;BMP180;46834;51.100;6.886;2022-09-09T05:56:20;100409.00;;;22.10
60966;BMP180;46834;51.100;6.886;2022-09-09T05:58:48;100415.00;;;22.20
60966;BMP180;46834;51.100;6.886;2022-09-09T06:01:17;100406.00;;;22.10
60966;BMP180;46834;51.100;6.886;2022-09-09T06:03:46;100408.00;;;22.10
60966;BMP180;46834;51.100;6.886;2022-09-09T06:06:16;100410.00;;;22.10
60966;BMP180;46834;51.100;6.886;2022-09-09T06:08:44;100407.00;;;22.10
60966;BMP180;46834;51.100;6.886;2022-09-09T06:11:14;100411.00;;;22.10
60966;BMP180;46834;51.100;6.886;2022-09-09T06:13:41;100417.00;;;22.10
60966;BMP180;46834;51.100;6.886;2022-09-09T06:16:16;100407.00;;;22.10
60966;BMP180;46834;51.100;6.886;2022-09-09T06:18:42;100408.00;;;22.10
60966;BMP180;46834;51.100;6.886;2022-09-09T06:21:26;100421.00;;;22.10
60966;BMP180;46834;51.100;6.886;2022-09-09T06:23:52;100421.00;;;22.20
60966;BMP180;46834;51.100;6.886;2022-09-09T06:26:25;100421.00;;;22.10
60966;BMP180;46834;51.100;6.886;2022-09-09T06:28:53;100418.00;;;22.10
60966;BMP180;46834;51.100;6.886;2022-09-09T06:31:22;100422.00;;;22.20
60966;BMP180;46834;51.100;6.886;2022-09-09T06:33:50;100415.00;;;22.20
60966;BMP180;46834;51.100;6.886;2022-09-09T06:36:28;100419.00;;;22.10
60966;BMP180;46834;51.100;6.886;2022-09-09T06:38:55;100423.00;;;22.20
60966;BMP180;46834;51.100;6.886;2022-09-09T06:41:25;100425.00;;;22.20
60966;BMP180;46834;51.100;6.886;2022-09-09T06:43:52;100426.00;;;22.20
60966;BMP180;46834;51.100;6.886;2022-09-09T06:46:24;100421.00;;;22.20
60966;BMP180;46834;51.100;6.886;2022-09-09T06:48:55;100423.00;;;22.20
60966;BMP180;46834;51.100;6.886;2022-09-09T06:51:31;100420.00;;;22.20
60966;BMP180;46834;51.100;6.886;2022-09-09T06:54:00;100426.00;;;22.20
60966;BMP180;46834;51.100;6.886;2022-09-09T06:56:29;100427.00;;;22.30
60966;BMP180;46834;51.100;6.886;2022-09-09T06:58:58;100417.00;;;22.30
60966;BMP180;46834;51.100;6.886;2022-09-09T07:01:27;100420.00;;;22.40
60966;BMP180;46834;51.100;6.886;2022-09-09T07:03:55;100420.00;;;22.40
60966;BMP180;46834;51.100;6.886;2022-09-09T07:06:33;100413.00;;;22.40
60966;BMP180;46834;51.100;6.886;2022-09-09T07:09:04;100417.00;;;22.50
60966;BMP180;46834;51.100;6.886;2022-09-09T07:11:41;100425.00;;;22.50
60966;BMP180;46834;51.100;6.886;2022-09-09T07:14:08;100414.00;;;22.60
60966;BMP180;46834;51.100;6.886;2022-09-09T07:16:34;100427.00;;;22.70
60966;BMP180;46834;51.100;6.886;2022-09-09T07:19:03;100417.00;;;22.70
60966;BMP180;46834;51.100;6.886;2022-09-09T07:21:30;100431.00;;;22.80
60966;BMP180;46834;51.100;6.886;2022-09-09T07:23:57;100423.00;;;22.80
60966;BMP180;46834;51.100;6.886;2022-09-09T07:26:29;100437.00;;;22.90
60966;BMP180;46834;51.100;6.886;2022-09-09T07:28:55;100436.00;;;22.90
60966;BMP180;46834;51.100;6.886;2022-09-09T07:31:26;100437.00;;;22.90
60966;BMP180;46834;51.100;6.886;2022-09-09T07:33:52;100436.00;;;23.00
60966;BMP180;46834;51.100;6.886;2022-09-09T07:36:43;100455.00;;;23.00
60966;BMP180;46834;51.100;6.886;2022-09-09T07:39:12;100445.00;;;23.10
60966;BMP180;46834;51.100;6.886;2022-09-09T07:41:47;100445.00;;;23.10
60966;BMP180;46834;51.100;6.886;2022-09-09T07:44:24;100452.00;;;23.10
60966;BMP180;46834;51.100;6.886;2022-09-09T07:46:50;100451.00;;;23.20
60966;BMP180;46834;51.100;6.886;2022-09-09T07:49:16;100455.00;;;23.20
60966;BMP180;46834;51.100;6.886;2022-09-09T07:51:46;100458.00;;;23.30
60966;BMP180;46834;51.100;6.886;2022-09-09T07:54:15;100451.00;;;23.30
60966;BMP180;46834;51.100;6.886;2022-09-09T07:56:42;100455.00;;;23.30
60966;BMP180;46834;51.100;6.886;2022-09-09T07:59:08;100446.00;;;23.40
60966;BMP180;46834;51.100;6.886;2022-09-09T08:01:39;100451.00;;;23.40
60966;BMP180;46834;51.100;6.886;2022-09-09T08:04:12;100456.00;;;23.40
60966;BMP180;46834;51.100;6.886;2022-09-09T08:06:48;100455.00;;;23.30
60966;BMP180;46834;51.100;6.886;2022-09-09T08:09:15;100464.00;;;23.40
60966;BMP180;46834;51.100;6.886;2022-09-09T08:11:42;100460.00;;;23.30
60966;BMP180;46834;51.100;6.886;2022-09-09T08:14:10;100456.00;;;23.30
60966;BMP180;46834;51.100;6.886;2022-09-09T08:16:46;100461.00;;;23.30
60966;BMP180;46834;51.100;6.886;2022-09-09T08:19:13;100455.00;;;23.40
60966;BMP180;46834;51.100;6.886;2022-09-09T08:21:42;100450.00;;;23.40
60966;BMP180;46834;51.100;6.886;2022-09-09T08:24:10;100459.00;;;23.40
60966;BMP180;46834;51.100;6.886;2022-09-09T08:26:42;100466.00;;;23.40
60966;BMP180;46834;51.100;6.886;2022-09-09T08:29:11;100445.00;;;23.50
60966;BMP180;46834;51.100;6.886;2022-09-09T08:31:40;100451.00;;;23.50
60966;BMP180;46834;51.100;6.886;2022-09-09T08:34:08;100456.00;;;23.60
60966;BMP180;46834;51.100;6.886;2022-09-09T08:36:44;100459.00;;;23.60
60966;BMP180;46834;51.100;6.886;2022-09-09T08:39:13;100460.00;;;23.60
60966;BMP180;46834;51.100;6.886;2022-09-09T08:44:57;100457.00;;;23.60
60966;BMP180;46834;51.100;6.886;2022-09-09T08:50:34;100474.00;;;23.70
60966;BMP180;46834;51.100;6.886;2022-09-09T08:53:24;100466.00;;;23.60
60966;BMP180;46834;51.100;6.886;2022-09-09T08:56:07;100476.00;;;23.70
60966;BMP180;46834;51.100;6.886;2022-09-09T08:58:43;100472.00;;;23.70
60966;BMP180;46834;51.100;6.886;2022-09-09T09:09:38;100473.00;;;23.60
60966;BMP180;46834;51.100;6.886;2022-09-09T09:12:19;100471.00;;;23.70
60966;BMP180;46834;51.100;6.886;2022-09-09T09:14:47;100477.00;;;23.70
60966;BMP180;46834;51.100;6.886;2022-09-09T09:17:20;100476.00;;;23.70
60966;BMP180;46834;51.100;6.886;2022-09-09T09:19:48;100489.00;;;23.80
60966;BMP180;46834;51.100;6.886;2022-09-09T09:22:50;100483.00;;;23.70
60966;BMP180;46834;51.100;6.886;2022-09-09T09:25:34;100481.00;;;23.70
60966;BMP180;46834;51.100;6.886;2022-09-09T09:28:17;100486.00;;;23.70
60966;BMP180;46834;51.100;6.886;2022-09-09T09:31:05;100493.00;;;23.80
60966;BMP180;46834;51.100;6.886;2022-09-09T09:33:51;100481.00;;;23.80
60966;BMP180;46834;51.100;6.886;2022-09-09T09:36:25;100488.00;;;23.90
60966;BMP180;46834;51.100;6.886;2022-09-09T09:39:00;100476.00;;;23.90
60966;BMP180;46834;51.100;6.886;2022-09-09T09:41:44;100480.00;;;23.90
60966;BMP180;46834;51.100;6.886;2022-09-09T09:44:43;100484.00;;;23.90
60966;BMP180;46834;51.100;6.886;2022-09-09T09:47:22;100483.00;;;23.90
60966;BMP180;46834;51.100;6.886;2022-09-09T09:49:58;100480.00;;;23.90
60966;BMP180;46834;51.100;6.886;2022-09-09T09:52:34;100494.00;;;24.00
60966;BMP180;46834;51.100;6.886;2022-09-09T09:55:04;100482.00;;;24.00
60966;BMP180;46834;51.100;6.886;2022-09-09T09:57:37;100482.00;;;24.10
60966;BMP180;46834;51.100;6.886;2022-09-09T10:00:19;100491.00;;;24.10
60966;BMP180;46834;51.100;6.886;2022-09-09T10:02:47;100484.00;;;24.10
60966;BMP180;46834;51.100;6.886;2022-09-09T10:05:17;100482.00;;;24.10
60966;BMP180;46834;51.100;6.886;2022-09-09T10:07:44;100483.00;;;24.10
60966;BMP180;46834;51.100;6.886;2022-09-09T10:10:20;100493.00;;;24.10
60966;BMP180;46834;51.100;6.886;2022-09-09T10:13:06;100472.00;;;24.10
60966;BMP180;46834;51.100;6.886;2022-09-09T10:16:13;100472.00;;;24.10
60966;BMP180;46834;51.100;6.886;2022-09-09T10:19:30;100476.00;;;24.10
60966;BMP180;46834;51.100;6.886;2022-09-09T10:28:21;100477.00;;;24.30
60966;BMP180;46834;51.100;6.886;2022-09-09T10:33:44;100471.00;;;24.40
60966;BMP180;46834;51.100;6.886;2022-09-09T10:36:27;100473.00;;;24.50
60966;BMP180;46834;51.100;6.886;2022-09-09T10:39:00;100471.00;;;24.50
60966;BMP180;46834;51.100;6.886;2022-09-09T10:42:05;100464.00;;;24.50
60966;BMP180;46834;51.100;6.886;2022-09-09T10:47:49;100461.00;;;24.60
60966;BMP180;46834;51.100;6.886;2022-09-09T10:55:43;100460.00;;;24.70
60966;BMP180;46834;51.100;6.886;2022-09-09T10:58:29;100458.00;;;24.60
60966;BMP180;46834;51.100;6.886;2022-09-09T11:01:09;100463.00;;;24.60
60966;BMP180;46834;51.100;6.886;2022-09-09T11:03:38;100461.00;;;24.60
60966;BMP180;46834;51.100;6.886;2022-09-09T11:06:15;100476.00;;;24.60
60966;BMP180;46834;51.100;6.886;2022-09-09T11:08:42;100454.00;;;24.70
60966;BMP180;46834;51.100;6.886;2022-09-09T11:11:36;100442.00;;;24.60
60966;BMP180;46834;51.100;6.886;2022-09-09T11:14:33;100438.00;;;24.60
60966;BMP180;46834;51.100;6.886;2022-09-09T11:17:26;100453.00;;;24.60
60966;BMP180;46834;51.100;6.886;2022-09-09T11:19:57;100452.00;;;24.70
60966;BMP180;46834;51.100;6.886;2022-09-09T11:22:55;100446.00;;;24.70
60966;BMP180;46834;51.100;6.886;2022-09-09T11:31:11;100459.00;;;24.80
60966;BMP180;46834;51.100;6.886;2022-09-09T11:37:29;100450.00;;;24.80
60966;BMP180;46834;51.100;6.886;2022-09-09T11:40:23;100447.00;;;24.80
60966;BMP180;46834;51.100;6.886;2022-09-09T11:43:09;100446.00;;;24.90
60966;BMP180;46834;51.100;6.886;2022-09-09T11:45:40;100454.00;;;24.90
60966;BMP180;46834;51.100;6.886;2022-09-09T11:48:38;100446.00;;;24.90
60966;BMP180;46834;51.100;6.886;2022-09-09T11:51:12;100443.00;;;24.90
60966;BMP180;46834;51.100;6.886;2022-09-09T11:56:46;100455.00;;;24.90
60966;BMP180;46834;51.100;6.886;2022-09-09T11:59:32;100458.00;;;24.90
60966;BMP180;46834;51.100;6.886;2022-09-09T12:02:02;100449.00;;;24.90
60966;BMP180;46834;51.100;6.886;2022-09-09T12:05:06;100452.00;;;24.90
60966;BMP180;46834;51.100;6.886;2022-09-09T12:07:57;100458.00;;;24.90
60966;BMP180;46834;51.100;6.886;2022-09-09T12:10:31;100457.00;;;24.90
60966;BMP180;46834;51.100;6.886;2022-09-09T12:13:19;100467.00;;;24.80
60966;BMP180;46834;51.100;6.886;2022-09-09T12:15:49;100471.00;;;24.90
60966;BMP180;46834;51.100;6.886;2022-09-09T12:18:24;100462.00;;;24.90
60966;BMP180;46834;51.100;6.886;2022-09-09T12:21:07;100458.00;;;24.80
60966;BMP180;46834;51.100;6.886;2022-09-09T12:23:54;100466.00;;;24.90
60966;BMP180;46834;51.100;6.886;2022-09-09T12:26:50;100467.00;;;24.90
60966;BMP180;46834;51.100;6.886;2022-09-09T12:32:06;100463.00;;;24.90
60966;BMP180;46834;51.100;6.886;2022-09-09T12:35:11;100462.00;;;25.00
60966;BMP180;46834;51.100;6.886;2022-09-09T12:37:52;100457.00;;;25.00
60966;BMP180;46834;51.100;6.886;2022-09-09T12:40:22;100457.00;;;25.10
60966;BMP180;46834;51.100;6.886;2022-09-09T12:42:48;100456.00;;;25.10
60966;BMP180;46834;51.100;6.886;2022-09-09T12:45:25;100447.00;;;25.10
60966;BMP180;46834;51.100;6.886;2022-09-09T12:48:03;100448.00;;;25.10
60966;BMP180;46834;51.100;6.886;2022-09-09T12:50:38;100454.00;;;25.10
60966;BMP180;46834;51.100;6.886;2022-09-09T12:53:19;100491.00;;;25.10
60966;BMP180;46834;51.100;6.886;2022-09-09T12:56:04;100492.00;;;25.00
60966;BMP180;46834;51.100;6.886;2022-09-09T12:58:31;100506.00;;;24.90
60966;BMP180;46834;51.100;6.886;2022-09-09T13:01:00;100477.00;;;24.90
60966;BMP180;46834;51.100;6.886;2022-09-09T13:03:27;100481.00;;;24.80
60966;BMP180;46834;51.100;6.886;2022-09-09T13:05:58;100472.00;;;24.80
60966;BMP180;46834;51.100;6.886;2022-09-09T13:08:26;100468.00;;;24.80
60966;BMP180;46834;51.100;6.886;2022-09-09T13:11:04;100459.00;;;24.70
60966;BMP180;46834;51.100;6.886;2022-09-09T13:13:37;100453.00;;;24.80
60966;BMP180;46834;51.100;6.886;2022-09-09T13:16:06;100459.00;;;24.80
60966;BMP180;46834;51.100;6.886;2022-09-09T13:18:37;100452.00;;;24.80
60966;BMP180;46834;51.100;6.886;2022-09-09T13:21:05;100457.00;;;24.90
60966;BMP180;46834;51.100;6.886;2022-09-09T13:23:34;100455.00;;;24.90
60966;BMP180;46834;51.100;6.886;2022-09-09T13:26:25;100446.00;;;24.90
60966;BMP180;46834;51.100;6.886;2022-09-09T13:28:53;100442.00;;;24.90
60966;BMP180;46834;51.100;6.886;2022-09-09T13:31:29;100437.00;;;24.90
60966;BMP180;46834;51.100;6.886;2022-09-09T13:33:55;100433.00;;;25.00
60966;BMP180;46834;51.100;6.886;2022-09-09T13:36:33;100430.00;;;25.00
60966;BMP180;46834;51.100;6.886;2022-09-09T13:39:03;100429.00;;;25.10
60966;BMP180;46834;51.100;6.886;2022-09-09T13:41:43;100429.00;;;25.10
60966;BMP180;46834;51.100;6.886;2022-09-09T13:44:32;100415.00;;;25.10
60966;BMP180;46834;51.100;6.886;2022-09-09T13:49:42;100413.00;;;25.30
60966;BMP180;46834;51.100;6.886;2022-09-09T13:52:13;100416.00;;;25.30
60966;BMP180;46834;51.100;6.886;2022-09-09T13:54:40;100416.00;;;25.30
60966;BMP180;46834;51.100;6.886;2022-09-09T13:57:20;100418.00;;;25.30
60966;BMP180;46834;51.100;6.886;2022-09-09T13:59:47;100403.00;;;25.40
60966;BMP180;46834;51.100;6.886;2022-09-09T14:02:14;100417.00;;;25.40
60966;BMP180;46834;51.100;6.886;2022-09-09T14:04:39;100409.00;;;25.40
60966;BMP180;46834;51.100;6.886;2022-09-09T14:07:13;100407.00;;;25.40
60966;BMP180;46834;51.100;6.886;2022-09-09T14:09:40;100411.00;;;25.50
60966;BMP180;46834;51.100;6.886;2022-09-09T14:12:12;100401.00;;;25.40
60966;BMP180;46834;51.100;6.886;2022-09-09T14:14:39;100415.00;;;25.50
60966;BMP180;46834;51.100;6.886;2022-09-09T14:17:05;100410.00;;;25.60
60966;BMP180;46834;51.100;6.886;2022-09-09T14:19:31;100405.00;;;25.60
60966;BMP180;46834;51.100;6.886;2022-09-09T14:21:57;100408.00;;;25.60
60966;BMP180;46834;51.100;6.886;2022-09-09T14:24:23;100412.00;;;25.70
60966;BMP180;46834;51.100;6.886;2022-09-09T14:26:50;100412.00;;;25.70
60966;BMP180;46834;51.100;6.886;2022-09-09T14:29:16;100408.00;;;25.70
60966;BMP180;46834;51.100;6.886;2022-09-09T14:31:42;100416.00;;;25.70
60966;BMP180;46834;51.100;6.886;2022-09-09T14:34:07;100421.00;;;25.70
60966;BMP180;46834;51.100;6.886;2022-09-09T14:36:33;100419.00;;;25.70
60966;BMP180;46834;51.100;6.886;2022-09-09T14:38:59;100425.00;;;25.70
60966;BMP180;46834;51.100;6.886;2022-09-09T14:41:24;100414.00;;;25.60
60966;BMP180;46834;51.100;6.886;2022-09-09T14:43:51;100420.00;;;25.50
60966;BMP180;46834;51.100;6.886;2022-09-09T14:46:19;100416.00;;;25.40
60966;BMP180;46834;51.100;6.886;2022-09-09T14:48:45;100424.00;;;25.40
60966;BMP180;46834;51.100;6.886;2022-09-09T14:51:19;100439.00;;;25.30
60966;BMP180;46834;51.100;6.886;2022-09-09T14:53:46;100435.00;;;25.30
60966;BMP180;46834;51.100;6.886;2022-09-09T14:56:18;100431.00;;;25.30
60966;BMP180;46834;51.100;6.886;2022-09-09T14:58:45;100444.00;;;25.20
60966;BMP180;46834;51.100;6.886;2022-09-09T15:01:15;100441.00;;;25.20
60966;BMP180;46834;51.100;6.886;2022-09-09T15:03:44;100439.00;;;25.20
60966;BMP180;46834;51.100;6.886;2022-09-09T15:06:14;100442.00;;;25.20
60966;BMP180;46834;51.100;6.886;2022-09-09T15:08:43;100450.00;;;25.20
60966;BMP180;46834;51.100;6.886;2022-09-09T15:11:11;100456.00;;;25.20
60966;BMP180;46834;51.100;6.886;2022-09-09T15:13:39;100446.00;;;25.20
60966;BMP180;46834;51.100;6.886;2022-09-09T15:18:32;100450.00;;;25.10
60966;BMP180;46834;51.100;6.886;2022-09-09T15:20:59;100445.00;;;25.10
60966;BMP180;46834;51.100;6.886;2022-09-09T15:23:26;100437.00;;;25.10
60966;BMP180;46834;51.100;6.886;2022-09-09T15:25:54;100435.00;;;25.10
60966;BMP180;46834;51.100;6.886;2022-09-09T15:28:21;100442.00;;;25.10
60966;BMP180;46834;51.100;6.886;2022-09-09T15:30:48;100444.00;;;25.10
60966;BMP180;46834;51.100;6.886;2022-09-09T15:33:14;100436.00;;;25.10
60966;BMP180;46834;51.100;6.886;2022-09-09T15:35:40;100439.00;;;25.10
60966;BMP180;46834;51.100;6.886;2022-09-09T15:38:06;100441.00;;;25.10
60966;BMP180;46834;51.100;6.886;2022-09-09T15:40:32;100439.00;;;25.10
60966;BMP180;46834;51.100;6.886;2022-09-09T15:43:00;100445.00;;;25.10
60966;BMP180;46834;51.100;6.886;2022-09-09T15:45:26;100439.00;;;25.10
60966;BMP180;46834;51.100;6.886;2022-09-09T15:47:56;100449.00;;;25.10